Time,TemperatureF,DewpointF,PressureIn,WindDirection,WindDirectionDegrees,WindSpeedMPH,WindSpeedGustMPH,Humidity,HourlyPrecipIn,Conditions,Clouds,dailyrainin,SoftwareType,DateUTC
2013-05-08 00:02:00,70.0,-99.9,30.09,North,-999,-999.0,-999.0,-999,-99.99,,,-99.99,,2013-05-08 04:02:00,
2013-05-08 00:13:00,-999.0,-99.9,30.09,NW,320,4.0,7.0,-999,-99.99,,,-99.99,,2013-05-08 04:13:00,
2013-05-08 00:23:00,70.0,-99.9,30.08,North,-999,-999.0,-999.0,-999,-99.99,,,-99.99,,2013-05-08 04:23:00,
2013-05-08 00:33:00,-999.0,-99.9,30.08,NW,304,4.0,6.0,-999,-99.99,,,-99.99,,2013-05-08 04:33:00,
2013-05-08 00:43:00,-999.0,-99.9,30.09,NW,310,3.0,4.0,-999,-99.99,,,-99.99,,2013-05-08 04:43:00,
2013-05-08 00:53:00,-999.0,-99.9,30.09,WNW,296,3.0,4.0,-999,-99.99,,,-99.99,,2013-05-08 04:53:00,
2013-05-08 01:12:00,-999.0,-99.9,30.09,WSW,251,3.0,4.0,-999,-99.99,,,-99.99,,2013-05-08 05:12:00,
2013-05-08 01:22:00,69.0,-99.9,30.09,North,-999,-999.0,-999.0,-999,-99.99,,,-99.99,,2013-05-08 05:22:00,
2013-05-08 01:32:00,69.0,-99.9,30.09,North,-999,-999.0,-999.0,-999,-99.99,,,-99.99,,2013-05-08 05:32:00,
2013-05-08 01:42:00,69.0,-99.9,30.09,North,-999,-999.0,-999.0,-999,-99.99,,,-99.99,,2013-05-08 05:42:00,
2013-05-08 01:52:00,-999.0,-99.9,30.09,WSW,250,3.0,3.0,-999,-99.99,,,-99.99,,2013-05-08 05:52:00,
2013-05-08 02:12:00,-999.0,-99.9,30.08,West,259,3.0,3.0,-999,-99.99,,,-99.99,,2013-05-08 06:12:00,
2013-05-08 02:22:00,68.0,-99.9,30.08,North,-999,-999.0,-999.0,-999,-99.99,,,-99.99,,2013-05-08 06:22:00,
2013-05-08 02:42:00,-999.0,-99.9,30.08,West,261,2.0,3.0,-999,-99.99,,,-99.99,,2013-05-08 06:42:00,
2013-05-08 02:52:00,68.0,-99.9,30.08,North,-999,-999.0,-999.0,-999,-99.99,,,-99.99,,2013-05-08 06:52:00,
2013-05-08 03:02:00,68.0,-99.9,30.08,North,-999,-999.0,-999.0,-999,-99.99,,,-99.99,,2013-05-08 07:02:00,
2013-05-08 03:11:00,-999.0,-99.9,30.08,SW,234,2.0,2.0,-999,-99.99,,,-99.99,,2013-05-08 07:11:00,
2013-05-08 03:22:00,68.0,-99.9,30.08,North,-999,-999.0,-999.0,-999,-99.99,,,-99.99,,2013-05-08 07:22:00,
2013-05-08 03:32:00,67.0,-99.9,30.07,North,-999,-999.0,-999.0,-999,-99.99,,,-99.99,,2013-05-08 07:32:00,
2013-05-08 03:42:00,68.0,-99.9,30.07,North,-999,-999.0,-999.0,-999,-99.99,,,-99.99,,2013-05-08 07:42:00,
2013-05-08 03:52:00,-999.0,-99.9,30.07,West,277,2.0,3.0,-999,-99.99,,,-99.99,,2013-05-08 07:52:00,
2013-05-08 04:02:00,-999.0,-99.9,30.07,WNW,288,2.0,2.0,-999,-99.99,,,-99.99,,2013-05-08 08:02:00,
2013-05-08 04:22:00,67.0,-99.9,30.07,North,-999,-999.0,-999.0,-999,-99.99,,,-99.99,,2013-05-08 08:22:00,
2013-05-08 04:32:00,-999.0,-99.9,30.07,West,265,3.0,3.0,-999,-99.99,,,-99.99,,2013-05-08 08:32:00,
2013-05-08 04:43:00,67.0,-99.9,30.07,North,-999,-999.0,-999.0,-999,-99.99,,,-99.99,,2013-05-08 08:43:00,
2013-05-08 04:52:00,-999.0,-99.9,30.08,West,270,3.0,3.0,-999,-99.99,,,-99.99,,2013-05-08 08:52:00,
2013-05-08 05:02:00,68.0,-99.9,30.08,North,-999,-999.0,-999.0,-999,-99.99,,,-99.99,,2013-05-08 09:02:00,
2013-05-08 05:22:00,68.0,-99.9,30.08,North,-999,-999.0,-999.0,-999,-99.99,,,-99.99,,2013-05-08 09:22:00,
2013-05-08 05:32:00,-999.0,-99.9,30.08,WNW,301,3.0,6.0,-999,-99.99,,,-99.99,,2013-05-08 09:32:00,
2013-05-08 05:42:00,69.0,-99.9,30.08,North,-999,-999.0,-999.0,-999,-99.99,,,-99.99,,2013-05-08 09:42:00,
2013-05-08 05:53:00,-999.0,-99.9,30.08,NW,312,4.0,5.0,-999,-99.99,,,-99.99,,2013-05-08 09:53:00,
2013-05-08 06:03:00,69.0,-99.9,30.08,North,-999,-999.0,-999.0,-999,-99.99,,,-99.99,,2013-05-08 10:03:00,
2013-05-08 06:12:00,-999.0,-99.9,30.08,NW,304,5.0,6.0,-999,-99.99,,,-99.99,,2013-05-08 10:12:00,
2013-05-08 06:23:00,-999.0,-99.9,30.08,WNW,302,4.0,5.0,-999,-99.99,,,-99.99,,2013-05-08 10:23:00,
2013-05-08 06:33:00,69.0,-99.9,30.08,North,-999,-999.0,-999.0,-999,-99.99,,,-99.99,,2013-05-08 10:33:00,
2013-05-08 06:42:00,69.0,-99.9,30.08,North,-999,-999.0,-999.0,-999,-99.99,,,-99.99,,2013-05-08 10:42:00,
2013-05-08 06:53:00,-999.0,-99.9,30.09,NW,311,3.0,4.0,-999,-99.99,,,-99.99,,2013-05-08 10:53:00,
2013-05-08 07:02:00,-999.0,-99.9,30.09,NW,326,3.0,4.0,-999,-99.99,,,-99.99,,2013-05-08 11:02:00,
2013-05-08 07:12:00,-999.0,-99.9,30.10,NW,313,2.0,3.0,-999,-99.99,,,-99.99,,2013-05-08 11:12:00,
2013-05-08 07:22:00,68.0,-99.9,30.10,North,-999,-999.0,-999.0,-999,-99.99,,,-99.99,,2013-05-08 11:22:00,
2013-05-08 07:33:00,-999.0,-99.9,30.11,NW,319,3.0,4.0,-999,-99.99,,,-99.99,,2013-05-08 11:33:00,
2013-05-08 07:42:00,69.0,-99.9,30.11,North,-999,-999.0,-999.0,-999,-99.99,,,-99.99,,2013-05-08 11:42:00,
2013-05-08 07:52:00,69.0,-99.9,30.12,North,-999,-999.0,-999.0,-999,-99.99,,,-99.99,,2013-05-08 11:52:00,
2013-05-08 08:02:00,69.0,-99.9,30.12,North,-999,-999.0,-999.0,-999,-99.99,,,-99.99,,2013-05-08 12:02:00,
2013-05-08 08:22:00,70.0,-99.9,30.13,North,-999,-999.0,-999.0,-999,-99.99,,,-99.99,,2013-05-08 12:22:00,
2013-05-08 08:42:00,-999.0,-99.9,30.14,NNW,330,3.0,4.0,-999,-99.99,,,-99.99,,2013-05-08 12:42:00,
2013-05-08 08:52:00,-999.0,-99.9,30.14,NNW,327,3.0,4.0,-999,-99.99,,,-99.99,,2013-05-08 12:52:00,
2013-05-08 09:01:00,71.0,-99.9,30.14,North,-999,-999.0,-999.0,-999,-99.99,,,-99.99,,2013-05-08 13:01:00,
2013-05-08 09:12:00,-999.0,-99.9,30.14,NNW,338,4.0,5.0,-999,-99.99,,,-99.99,,2013-05-08 13:12:00,
2013-05-08 09:22:00,-999.0,-99.9,30.14,WNW,290,6.0,8.0,-999,-99.99,,,-99.99,,2013-05-08 13:22:00,
2013-05-08 09:32:00,72.0,-99.9,30.15,North,-999,-999.0,-999.0,-999,-99.99,,,-99.99,,2013-05-08 13:32:00,
2013-05-08 09:42:00,-999.0,-99.9,30.15,West,265,7.0,7.0,-999,-99.99,,,-99.99,,2013-05-08 13:42:00,
2013-05-08 09:52:00,72.0,-99.9,30.15,North,-999,-999.0,-999.0,-999,-99.99,,,-99.99,,2013-05-08 13:52:00,
2013-05-08 10:12:00,-999.0,-99.9,30.15,NW,308,2.0,7.0,-999,-99.99,,,-99.99,,2013-05-08 14:12:00,
2013-05-08 10:22:00,-999.0,-99.9,30.16,WSW,253,7.0,9.0,-999,-99.99,,,-99.99,,2013-05-08 14:22:00,
2013-05-08 10:32:00,-999.0,-99.9,30.16,West,269,6.0,8.0,-999,-99.99,,,-99.99,,2013-05-08 14:32:00,
2013-05-08 10:42:00,-999.0,-99.9,30.16,West,266,6.0,8.0,-999,-99.99,,,-99.99,,2013-05-08 14:42:00,
2013-05-08 10:52:00,-999.0,-99.9,30.16,WSW,239,7.0,11.0,-999,-99.99,,,-99.99,,2013-05-08 14:52:00,
2013-05-08 11:02:00,73.0,-99.9,30.16,North,-999,-999.0,-999.0,-999,-99.99,,,-99.99,,2013-05-08 15:02:00,
2013-05-08 11:11:00,-999.0,-99.9,30.16,WSW,244,6.0,11.0,-999,-99.99,,,-99.99,,2013-05-08 15:11:00,
2013-05-08 11:22:00,73.0,-99.9,30.17,North,-999,-999.0,-999.0,-999,-99.99,,,-99.99,,2013-05-08 15:22:00,
2013-05-08 11:42:00,73.0,-99.9,30.17,North,-999,-999.0,-999.0,-999,-99.99,,,-99.99,,2013-05-08 15:42:00,
2013-05-08 11:53:00,-999.0,-99.9,30.17,WSW,255,6.0,9.0,-999,-99.99,,,-99.99,,2013-05-08 15:53:00,
2013-05-08 12:03:00,-999.0,-99.9,30.17,SW,226,8.0,13.0,-999,-99.99,,,-99.99,,2013-05-08 16:03:00,
2013-05-08 12:23:00,73.0,-99.9,30.17,North,-999,-999.0,-999.0,-999,-99.99,,,-99.99,,2013-05-08 16:23:00,
2013-05-08 12:33:00,74.0,-99.9,30.16,North,-999,-999.0,-999.0,-999,-99.99,,,-99.99,,2013-05-08 16:33:00,
2013-05-08 12:42:00,-999.0,-99.9,30.17,West,265,12.0,15.0,-999,-99.99,,,-99.99,,2013-05-08 16:42:00,
2013-05-08 12:52:00,-999.0,-99.9,30.16,West,259,10.0,14.0,-999,-99.99,,,-99.99,,2013-05-08 16:52:00,
2013-05-08 13:22:00,-999.0,-99.9,30.16,WSW,243,13.0,17.0,-999,-99.99,,,-99.99,,2013-05-08 17:22:00,
2013-05-08 13:32:00,-999.0,-99.9,30.16,WSW,243,13.0,17.0,-999,-99.99,,,-99.99,,2013-05-08 17:32:00,
2013-05-08 13:42:00,-999.0,-99.9,30.16,WSW,243,13.0,17.0,-999,-99.99,,,-99.99,,2013-05-08 17:42:00,
2013-05-08 13:52:00,74.0,-99.9,30.15,North,-999,-999.0,-999.0,-999,-99.99,,,-99.99,,2013-05-08 17:52:00,
2013-05-08 14:02:00,-999.0,-99.9,30.15,West,265,12.0,17.0,-999,-99.99,,,-99.99,,2013-05-08 18:02:00,
2013-05-08 14:12:00,-999.0,-99.9,30.15,West,265,11.0,15.0,-999,-99.99,,,-99.99,,2013-05-08 18:12:00,
2013-05-08 14:32:00,74.0,-99.9,30.16,North,-999,-999.0,-999.0,-999,-99.99,,,-99.99,,2013-05-08 18:32:00,
2013-05-08 14:42:00,-999.0,-99.9,30.16,WSW,241,12.0,16.0,-999,-99.99,,,-99.99,,2013-05-08 18:42:00,
2013-05-08 14:52:00,74.0,-99.9,30.16,North,-999,-999.0,-999.0,-999,-99.99,,,-99.99,,2013-05-08 18:52:00,
2013-05-08 15:02:00,-999.0,-99.9,30.15,SW,227,15.0,20.0,-999,-99.99,,,-99.99,,2013-05-08 19:02:00,
2013-05-08 15:11:00,-999.0,-99.9,30.15,WSW,250,13.0,17.0,-999,-99.99,,,-99.99,,2013-05-08 19:11:00,
2013-05-08 15:22:00,-999.0,-99.9,30.15,SW,236,11.0,16.0,-999,-99.99,,,-99.99,,2013-05-08 19:22:00,
2013-05-08 15:32:00,-999.0,-99.9,30.15,SW,234,11.0,17.0,-999,-99.99,,,-99.99,,2013-05-08 19:32:00,
2013-05-08 15:42:00,74.0,-99.9,30.15,North,-999,-999.0,-999.0,-999,-99.99,,,-99.99,,2013-05-08 19:42:00,
2013-05-08 15:52:00,74.0,-99.9,30.14,North,-999,-999.0,-999.0,-999,-99.99,,,-99.99,,2013-05-08 19:52:00,
2013-05-08 16:12:00,-999.0,-99.9,30.14,WNW,290,14.0,16.0,-999,-99.99,,,-99.99,,2013-05-08 20:12:00,
2013-05-08 16:22:00,-999.0,-99.9,30.13,West,266,13.0,18.0,-999,-99.99,,,-99.99,,2013-05-08 20:22:00,
2013-05-08 16:32:00,-999.0,-99.9,30.13,West,263,11.0,17.0,-999,-99.99,,,-99.99,,2013-05-08 20:32:00,
2013-05-08 16:42:00,-999.0,-99.9,30.13,WSW,258,10.0,16.0,-999,-99.99,,,-99.99,,2013-05-08 20:42:00,
2013-05-08 16:52:00,-999.0,-99.9,30.13,West,270,10.0,15.0,-999,-99.99,,,-99.99,,2013-05-08 20:52:00,
2013-05-08 17:12:00,-999.0,-99.9,30.13,West,273,13.0,17.0,-999,-99.99,,,-99.99,,2013-05-08 21:12:00,
2013-05-08 17:22:00,-999.0,-99.9,30.13,West,260,9.0,14.0,-999,-99.99,,,-99.99,,2013-05-08 21:22:00,
2013-05-08 17:43:00,-999.0,-99.9,30.13,WNW,292,11.0,14.0,-999,-99.99,,,-99.99,,2013-05-08 21:43:00,
2013-05-08 17:53:00,74.0,-99.9,30.13,North,-999,-999.0,-999.0,-999,-99.99,,,-99.99,,2013-05-08 21:53:00,
2013-05-08 18:03:00,-999.0,-99.9,30.13,West,279,12.0,15.0,-999,-99.99,,,-99.99,,2013-05-08 22:03:00,
2013-05-08 18:12:00,-999.0,-99.9,30.13,West,271,11.0,14.0,-999,-99.99,,,-99.99,,2013-05-08 22:12:00,
2013-05-08 18:22:00,-999.0,-99.9,30.13,WNW,291,13.0,15.0,-999,-99.99,,,-99.99,,2013-05-08 22:22:00,
2013-05-08 18:42:00,-999.0,-99.9,30.13,West,278,9.0,15.0,-999,-99.99,,,-99.99,,2013-05-08 22:42:00,
2013-05-08 18:53:00,74.0,-99.9,30.13,North,-999,-999.0,-999.0,-999,-99.99,,,-99.99,,2013-05-08 22:53:00,
2013-05-08 19:02:00,74.0,-99.9,30.13,North,-999,-999.0,-999.0,-999,-99.99,,,-99.99,,2013-05-08 23:02:00,
2013-05-08 19:12:00,-999.0,-99.9,30.13,West,265,9.0,12.0,-999,-99.99,,,-99.99,,2013-05-08 23:12:00,
2013-05-08 19:22:00,-999.0,-99.9,30.13,West,280,8.0,11.0,-999,-99.99,,,-99.99,,2013-05-08 23:22:00,
2013-05-08 19:33:00,-999.0,-99.9,30.13,West,270,9.0,12.0,-999,-99.99,,,-99.99,,2013-05-08 23:33:00,
2013-05-08 19:42:00,73.0,-99.9,30.13,North,-999,-999.0,-999.0,-999,-99.99,,,-99.99,,2013-05-08 23:42:00,
2013-05-08 19:53:00,73.0,-99.9,30.13,North,-999,-999.0,-999.0,-999,-99.99,,,-99.99,,2013-05-08 23:53:00,
2013-05-08 20:02:00,-999.0,-99.9,30.13,WNW,296,8.0,12.0,-999,-99.99,,,-99.99,,2013-05-09 00:02:00,
2013-05-08 20:21:00,73.0,-99.9,30.14,North,-999,-999.0,-999.0,-999,-99.99,,,-99.99,,2013-05-09 00:21:00,
2013-05-08 20:32:00,72.0,-99.9,30.14,North,-999,-999.0,-999.0,-999,-99.99,,,-99.99,,2013-05-09 00:32:00,
2013-05-08 20:42:00,-999.0,-99.9,30.14,WNW,299,8.0,10.0,-999,-99.99,,,-99.99,,2013-05-09 00:42:00,
2013-05-08 20:52:00,-999.0,-99.9,30.14,WNW,297,7.0,10.0,-999,-99.99,,,-99.99,,2013-05-09 00:52:00,
2013-05-08 21:02:00,-999.0,-99.9,30.14,WNW,287,7.0,9.0,-999,-99.99,,,-99.99,,2013-05-09 01:02:00,
2013-05-08 21:22:00,72.0,-99.9,30.15,North,-999,-999.0,-999.0,-999,-99.99,,,-99.99,,2013-05-09 01:22:00,
2013-05-08 21:42:00,-999.0,-99.9,30.15,WNW,298,6.0,9.0,-999,-99.99,,,-99.99,,2013-05-09 01:42:00,
2013-05-08 21:53:00,-999.0,-99.9,30.15,WNW,287,7.0,8.0,-999,-99.99,,,-99.99,,2013-05-09 01:53:00,
2013-05-08 22:02:00,72.0,-99.9,30.15,North,-999,-999.0,-999.0,-999,-99.99,,,-99.99,,2013-05-09 02:02:00,
2013-05-08 22:12:00,-999.0,-99.9,30.15,NW,310,6.0,7.0,-999,-99.99,,,-99.99,,2013-05-09 02:12:00,
2013-05-08 22:22:00,72.0,-99.9,30.16,North,-999,-999.0,-999.0,-999,-99.99,,,-99.99,,2013-05-09 02:22:00,
2013-05-08 22:33:00,-999.0,-99.9,30.16,WNW,290,5.0,6.0,-999,-99.99,,,-99.99,,2013-05-09 02:33:00,
2013-05-08 22:42:00,-999.0,-99.9,30.16,WNW,290,5.0,6.0,-999,-99.99,,,-99.99,,2013-05-09 02:42:00,
2013-05-08 22:52:00,-999.0,-99.9,30.16,WNW,290,5.0,6.0,-999,-99.99,,,-99.99,,2013-05-09 02:52:00,
2013-05-08 23:02:00,-999.0,-99.9,30.16,WSW,247,3.0,4.0,-999,-99.99,,,-99.99,,2013-05-09 03:02:00,
2013-05-08 23:22:00,-999.0,-99.9,30.17,NW,307,3.0,4.0,-999,-99.99,,,-99.99,,2013-05-09 03:22:00,
2013-05-08 23:33:00,-999.0,-99.9,30.17,NW,308,4.0,6.0,-999,-99.99,,,-99.99,,2013-05-09 03:33:00,
2013-05-08 23:43:00,72.0,-99.9,30.17,North,-999,-999.0,-999.0,-999,-99.99,,,-99.99,,2013-05-09 03:43:00,
2013-05-08 23:53:00,72.0,-99.9,30.17,North,-999,-999.0,-999.0,-999,-99.99,,,-99.99,,2013-05-09 03:53:00,